Bookmark and Share
Track history (hours):
 

Aqualoyalty

Last reported at 2014-Mar-16 02:24 UTC. Time now 2014-Apr-24 09:10 UTC.
Position N 28°08' W 116°28'.
Warning: this ship's position is 39 days out of date.

Length 249 m; draft 8.9 m.

Type: Tanker. MMSI: 636015177.

NotesDate/timePositionNaut miles runAvg speedWind from/ knotsBaromVisibWave heightAir tempDewpointWater temp
2014-Mar-16 02:24N 28°08' W 116°28'910.7
2014-Mar-16 01:33N 28°17' W 116°32'13410.9
2014-Mar-15 13:12N 30°23' W 117°25'710.5
2014-Mar-15 12:33N 30°29' W 117°26'1110.7
2014-Mar-15 11:33N 30°40' W 117°27'1110.6
2014-Mar-15 10:33N 30°50' W 117°29'1110.7
2014-Mar-15 09:30N 31°01' W 117°32'2310.7
2014-Mar-15 07:23N 31°24' W 117°36'1010.6
2014-Mar-15 06:28N 31°33' W 117°38'1010.9
2014-Mar-15 05:33N 31°43' W 117°40'1110.9
2014-Mar-15 04:33N 31°54' W 117°42'1111.0
2014-Mar-15 03:33N 32°05' W 117°44'1111.1
2014-Mar-15 02:33N 32°16' W 117°46'1111.1
2014-Mar-15 01:33N 32°27' W 117°48'1111.1
2014-Mar-15 00:33N 32°38' W 117°50'1111.0
2014-Mar-14 23:33N 32°48' W 117°52'1110.9
2014-Mar-14 22:33N 32°59' W 117°54'1110.8
2014-Mar-14 21:33N 33°09' W 117°60'1110.7
2014-Mar-14 20:33N 33°18' W 118°06'1110.8
2014-Mar-14 19:33N 33°28' W 118°10'16 1.5
2014-Mar-14 09:19N 33°44' W 118°13'8 1.7
2014-Mar-14 04:31N 33°36' W 118°15'21 0.8
2014-Mar-13 02:33N 33°54' W 118°27'0 0.0
2014-Mar-13 01:33N 33°54' W 118°27'0 0.0
2014-Mar-13 00:33N 33°54' W 118°27'0 0.0
2014-Mar-12 23:33N 33°54' W 118°27'0 0.0
2014-Mar-12 22:30N 33°54' W 118°27'0 0.0
2014-Mar-12 21:27N 33°54' W 118°27'0 0.2
2014-Mar-12 20:33N 33°54' W 118°27'1 1.3
2014-Mar-12 19:33N 33°54' W 118°29'1 0.5
2014-Mar-12 18:31N 33°54' W 118°29'0 0.1
2014-Mar-12 17:31N 33°54' W 118°29'0 0.1
2014-Mar-12 16:31N 33°54' W 118°29'0 0.1
2014-Mar-12 15:31N 33°54' W 118°29'0 0.0
2014-Mar-12 14:28N 33°54' W 118°29'0 0.1
2014-Mar-12 13:31N 33°54' W 118°29'0 0.0
2014-Mar-12 12:31N 33°54' W 118°29'0 0.1
2014-Mar-12 11:31N 33°54' W 118°29'0 0.0
2014-Mar-12 10:31N 33°54' W 118°29'0 0.1
2014-Mar-12 09:31N 33°54' W 118°30'0 0.1
2014-Mar-12 08:31N 33°54' W 118°29'0 0.1
2014-Mar-12 07:31N 33°54' W 118°29'0 0.1
2014-Mar-12 06:31N 33°54' W 118°29'0 0.1
2014-Mar-12 05:31N 33°54' W 118°29'0 0.0
2014-Mar-12 04:31N 33°54' W 118°29'0 0.0
2014-Mar-12 03:31N 33°54' W 118°29'0 0.0
2014-Mar-12 02:31N 33°54' W 118°29'0 0.0
2014-Mar-12 01:31N 33°54' W 118°29'0 0.0
2014-Mar-12 00:31N 33°54' W 118°29'0 0.0
2014-Mar-11 23:31N 33°54' W 118°29'0 0.1
2014-Mar-11 22:25N 33°54' W 118°29'0 0.0
2014-Mar-11 21:31N 33°54' W 118°29'0 0.0
2014-Mar-11 20:31N 33°54' W 118°29'0 0.1
2014-Mar-11 19:31N 33°54' W 118°29'0 0.0
2014-Mar-11 18:31N 33°54' W 118°29'0 0.0
2014-Mar-11 17:31N 33°54' W 118°29'0 0.1
2014-Mar-11 16:31N 33°54' W 118°29'0 0.0
2014-Mar-11 15:31N 33°54' W 118°29'0 0.2
2014-Mar-11 14:33N 33°54' W 118°29'7 7.0
2014-Mar-11 13:33N 33°48' W 118°33'1010.2
2014-Mar-11 12:33N 33°38' W 118°38'1210.0
2014-Mar-11 11:24N 33°27' W 118°41'8 9.4
2014-Mar-11 10:33N 33°20' W 118°37'1010.0
2014-Mar-11 09:33N 33°13' W 118°29'10 9.8
2014-Mar-11 08:33N 33°06' W 118°20'1010.0
2014-Mar-11 07:33N 32°59' W 118°12'1010.2
2014-Mar-11 06:33N 32°52' W 118°03'1010.4
2014-Mar-11 05:33N 32°44' W 117°56'1010.3
2014-Mar-11 04:33N 32°34' W 117°52'8 8.4
2014-Mar-11 03:33N 32°26' W 117°49'9 8.9
2014-Mar-11 02:33N 32°17' W 117°47'10 9.8
2014-Mar-11 01:33N 32°08' W 117°44'1010.0
2014-Mar-11 00:33N 31°58' W 117°41'1010.2
2014-Mar-10 23:33N 31°48' W 117°37'1010.4
2014-Mar-10 22:33N 31°38' W 117°36'2110.4
2014-Mar-10 20:30N 31°18' W 117°28'  

Dump ship's entire track history

sailing weather and tide predictions

Aqualoyalty — A8ZC6 — position and weather